Latest Coastal Weather Observations for Tasman Island

IDT60701

Issued at 4:22 am EDT Thursday 23 February 2017 (issued every 10 minutes, with the page automatically refreshed every 10 minutes)

About coastal observations | Map of coastal stations | Coastal observations for TAS | Marine services | Other Formats
Station Details ID: 094155 Name: TASMAN ISLAND Lat: -43.24 Lon: 148.00 Height: 240.0 m
Data from the previous 72 hours. | See also: Recent months at Tasman Island
Date/Time
EDT
Temp
°C
Wind Pressure Rain since
9am
mm
Weather Cloud Vis
km
Sea
Height
m
Swell
Dir  Spd
kts
Gust
kts
hPa Trend Height
m
Period
s
Dir
23/04:00am 16.6 NNW 13 20 1006.3 - 0.0 - - - - - - -
23/03:30am 16.4 NNE 17 21 1005.7 - 0.0 - - - - - - -
23/03:00am 18.0 N 22 28 1006.3 - 0.0 - - - - - - -
23/02:30am 17.9 N 26 32 1006.5 - 0.0 - - - - - - -
23/02:00am 17.4 N 26 30 1007.1 - 0.0 - - - - - - -
23/01:30am 17.6 N 30 35 1007.3 - 0.0 - - - - - - -
23/01:00am 17.4 N 31 38 1007.5 - 0.0 - - - - - - -
23/12:30am 16.7 N 30 36 1008.2 - 0.0 - - - - - - -
23/12:00am 16.8 N 29 34 1008.7 - 0.0 - - - - - - -
 
Date/Time
EDT
Temp
°C
Wind Pressure Rain since
9am
mm
Weather Cloud Vis
km
Sea
Height
m
Swell
Dir  Spd
kts
Gust
kts
hPa Trend Height
m
Period
s
Dir
22/11:30pm 16.8 N 23 30 1009.4 - 0.0 - - - - - - -
22/11:00pm 16.8 N 22 27 1010.1 - 0.0 - - - - - - -
22/10:30pm 16.6 NNE 22 30 1010.2 - 0.0 - - - - - - -
22/10:00pm 16.5 N 21 27 1010.4 - 0.0 - - - - - - -
22/09:30pm 16.9 N 22 28 1011.0 - 0.0 - - - - - - -
22/09:00pm 16.6 N 24 31 1010.6 - 0.0 - - - - - - -
22/08:30pm 16.6 N 22 33 1010.6 - 0.0 - - - - - - -
22/08:16pm 16.8 N 21 32 1010.2 - 0.0 - - - - - - -
22/08:00pm 16.8 N 22 29 1010.7 - 0.0 - - - - - - -
22/07:30pm 17.2 N 25 34 1010.0 - 0.0 - - - - - - -
22/07:27pm 17.2 N 27 35 1009.9 - 0.0 - - - - - - -
22/07:00pm 16.7 N 34 42 1009.7 - 0.0 - - - - - - -
22/06:30pm 16.8 N 31 41 1010.6 - 0.0 - - - - - - -
22/06:00pm 16.9 N 28 35 1010.3 - 0.0 - - - - - - -
22/05:30pm 17.3 N 28 33 1011.0 - 0.0 - - - - - - -
22/05:00pm 17.6 NNE 25 33 1011.3 - 0.0 - - - - - - -
22/04:30pm 17.6 NNE 23 29 1011.8 - 0.0 - - - - - - -
22/04:00pm 17.5 N 25 31 1011.9 - 0.0 - - - - - - -
22/03:30pm 16.8 NNE 20 27 1012.5 - 0.0 - - - - - - -
22/03:00pm 17.3 NNE 20 27 1013.0 - 0.0 - - - - - - -
22/02:30pm 17.8 N 20 25 1013.4 - 0.0 - - - - - - -
22/02:00pm 17.5 NNE 15 23 1013.5 - 0.0 - - - - - - -
22/01:30pm 18.0 NNE 12 21 1013.7 - 0.0 - - - - - - -
22/01:00pm 17.5 NNE 14 19 1014.3 - 0.0 - - - - - - -
22/12:30pm 16.6 N 18 29 1014.3 - 0.0 - - - - - - -
22/12:00pm 16.6 NNE 17 28 1014.5 - 0.0 - - - - - - -
22/11:56am 16.6 NNE 17 28 1014.7 - 0.0 - - - - - - -
22/11:30am 17.2 N 19 25 1014.9 - 0.0 - - - - - - -
22/11:00am 16.6 N 19 26 1015.2 - 0.0 - - - - - - -
22/10:30am 15.9 N 21 29 1015.1 - 0.0 - - - - - - -
22/10:00am 15.2 N 24 32 1015.2 - 0.0 - - - - - - -
22/09:30am 14.9 N 26 35 1015.5 - 0.0 - - - - - - -
22/09:00am 15.1 N 27 33 1015.5 - 0.0 - - - - - - -
22/08:30am 14.7 NNE 22 30 1015.8 - 0.0 - - - - - - -
22/08:00am 15.4 NNE 24 32 1015.6 - 0.0 - - - - - - -
22/07:30am 14.6 NNE 28 36 1015.7 - 0.0 - - - - - - -
22/07:00am 14.8 NNE 23 32 1016.0 - 0.0 - - - - - - -
22/06:30am 14.4 NNE 24 32 1015.9 - 0.0 - - - - - - -
22/06:00am 14.2 NNE 26 33 1015.8 - 0.0 - - - - - - -
22/05:30am 14.2 NNE 24 32 1015.9 - 0.0 - - - - - - -
22/05:00am 13.9 NNE 24 31 1016.3 - 0.0 - - - - - - -
22/04:30am 13.8 NNE 21 27 1016.8 - 0.0 - - - - - - -
22/04:00am 13.6 NNE 20 27 1017.3 - 0.0 - - - - - - -
22/03:30am 13.5 NNE 17 25 1017.8 - 0.0 - - - - - - -
22/03:00am 13.2 NNE 12 23 1017.9 - 0.0 - - - - - - -
22/02:30am 13.1 NNE 12 22 1018.2 - 0.0 - - - - - - -
22/02:00am 12.6 NNE 10 17 1018.4 - 0.0 - - - - - - -
22/01:30am 11.8 NNE 7 11 1018.9 - 0.0 - - - - - - -
22/01:00am 11.3 NNE 7 9 1019.3 - 0.0 - - - - - - -
22/12:30am 10.7 N 3 5 1019.4 - 0.0 - - - - - - -
22/12:00am 11.5 W 2 3 1019.6 - 0.0 - - - - - - -
 
Date/Time
EDT
Temp
°C
Wind Pressure Rain since
9am
mm
Weather Cloud Vis
km
Sea
Height
m
Swell
Dir  Spd
kts
Gust
kts
hPa Trend Height
m
Period
s
Dir
21/11:30pm 10.9 WSW 3 5 1019.8 - 0.0 - - - - - - -
21/11:00pm 11.3 WSW 3 5 1019.9 - 0.0 - - - - - - -
21/10:30pm 11.9 WSW 4 8 1020.1 - 0.0 - - - - - - -
21/10:00pm 11.8 WSW 5 9 1020.2 - 0.0 - - - - - - -
21/09:30pm 11.8 SW 5 9 1020.0 - 0.0 - - - - - - -
21/09:00pm 11.7 SW 7 12 1019.8 - 0.0 - - - - - - -
21/08:30pm 11.8 SW 6 13 1019.4 - 0.0 - - - - - - -
21/08:00pm 11.9 SW 14 21 1018.8 - 0.0 - - - - - - -
21/07:30pm 12.3 SSW 10 20 1018.6 - 0.0 - - - - - - -
21/07:00pm 12.6 SSW 11 21 1018.3 - 0.0 - - - - - - -
21/06:30pm 12.8 SSW 11 24 1018.0 - 0.0 - - - - - - -
21/06:11pm 12.9 SW 16 26 1017.6 - 0.0 - - - - - - -
21/06:00pm 13.0 SW 19 27 1017.5 - 0.0 - - - - - - -
21/05:45pm 13.0 SSW 15 26 1017.5 - 0.0 - - - - - - -
21/05:30pm 13.6 SSW 13 22 1017.8 - 0.0 - - - - - - -
21/05:03pm 13.8 SSW 15 26 1017.4 - 0.0 - - - - - - -
21/05:00pm 13.7 SSW 14 26 1017.5 - 0.0 - - - - - - -
21/04:30pm 13.7 SW 18 29 1017.2 - 0.0 - - - - - - -
21/04:09pm 13.7 SSW 15 29 1017.3 - 0.0 - - - - - - -
21/04:00pm 13.8 SSW 14 27 1017.1 - 0.0 - - - - - - -
21/03:30pm 14.5 SSW 16 28 1016.9 - 0.0 - - - - - - -
21/03:00pm 14.4 SW 16 27 1017.2 - 0.0 - - - - - - -
21/02:53pm 14.5 SSW 15 27 1017.2 - 0.0 - - - - - - -
21/02:30pm 14.6 SW 12 20 1017.1 - 0.0 - - - - - - -
21/02:00pm 15.7 WSW 10 18 1017.4 - 0.0 - - - - - - -
21/01:30pm 15.1 WSW 6 16 1017.3 - 0.0 - - - - - - -
21/01:00pm 14.8 NW 5 16 1017.1 - 0.0 - - - - - - -
21/12:30pm 13.3 NNE 4 12 1017.0 - 0.0 - - - - - - -
21/12:00pm 13.2 N 6 14 1016.9 - 0.0 - - - - - - -
21/11:30am 13.5 NNW 4 16 1016.9 - 0.0 - - - - - - -
21/11:00am 12.9 WSW 10 24 1016.8 - 0.0 - - - - - - -
21/10:30am 12.1 NW 5 22 1016.6 - 0.0 - - - - - - -
21/10:00am 12.0 WSW 7 22 1016.4 - 0.0 - - - - - - -
21/09:30am 12.9 W 9 22 1016.2 - 0.0 - - - - - - -
21/09:00am 11.7 WSW 6 18 1015.7 - 2.8 - - - - - - -
21/08:30am 11.9 SSW 7 21 1015.3 - 2.8 - - - - - - -
21/08:00am 11.9 WSW 13 30 1014.8 - 2.8 - - - - - - -
21/07:30am 11.9 WSW 13 30 1014.2 - 2.8 - - - - - - -
21/07:26am 11.9 WSW 12 30 1014.2 - 2.8 - - - - - - -
21/07:00am 11.9 SW 11 27 1013.6 - 2.8 - - - - - - -
21/06:30am 11.8 WSW 12 30 1013.3 - 2.8 - - - - - - -
21/06:00am 11.7 WSW 12 26 1012.9 - 2.8 Recent precip. - - - - - -
21/05:35am 11.2 WSW 15 39 1012.5 - 2.8 - - - - - - -
21/05:30am 11.1 WSW 14 32 1012.5 - 2.8 - - - - - - -
21/05:17am 11.1 W 8 26 1012.5 - 2.6 - - - - - - -
21/05:00am 11.7 WSW 11 26 1012.5 - 2.6 - - - - - - -
21/04:30am 11.6 SW 18 32 1012.3 - 2.6 - - - - - - -
21/04:00am 11.7 SW 15 32 1012.1 - 2.6 - - - - - - -
21/03:30am 11.4 SW 15 31 1011.9 - 2.6 - - - - - - -
21/03:24am 11.5 SW 12 31 1011.8 - 2.6 - - - - - - -
21/03:00am 11.4 SW 14 30 1011.7 - 2.6 - - - - - - -
21/02:36am 11.3 SW 20 35 1011.3 - 2.6 - - - - - - -
21/02:30am 11.4 SW 20 35 1011.2 - 2.6 - - - - - - -
21/02:21am 11.3 SW 15 35 1011.3 - 2.6 - - - - - - -
21/02:00am 11.4 WSW 14 32 1011.2 - 2.6 - - - - - - -
21/01:45am 11.6 WSW 15 34 1011.1 - 2.6 - - - - - - -
21/01:30am 11.8 WSW 12 27 1011.0 - 2.6 - - - - - - -
21/01:02am 11.7 WSW 15 36 1010.9 - 2.6 - - - - - - -
21/01:00am 11.6 WSW 14 36 1010.9 - 2.6 - - - - - - -
21/12:49am 11.7 SW 15 29 1010.8 - 2.6 - - - - - - -
21/12:30am 11.7 SW 13 29 1010.9 - 2.6 - - - - - - -
21/12:21am 11.7 WSW 15 30 1010.8 - 2.6 - - - - - - -
21/12:00am 11.8 SW 13 35 1010.8 - 2.6 - - - - - - -
 
Date/Time
EDT
Temp
°C
Wind Pressure Rain since
9am
mm
Weather Cloud Vis
km
Sea
Height
m
Swell
Dir  Spd
kts
Gust
kts
hPa Trend Height
m
Period
s
Dir
20/11:40pm 11.7 SW 15 33 1010.7 - 2.6 - - - - - - -
20/11:30pm 11.6 SW 14 34 1010.8 - 2.6 - - - - - - -
20/11:00pm 11.8 SW 23 37 1010.6 - 2.6 - - - - - - -
20/10:30pm 12.1 SW 21 38 1010.4 - 2.6 - - - - - - -
20/10:00pm 12.1 SSW 22 35 1010.6 - 2.6 - - - - - - -
20/09:31pm 11.8 SW 23 34 1010.3 - 2.6 - - - - - - -
20/09:30pm 11.8 SW 24 34 1010.3 - 2.6 - - - - - - -
20/09:00pm 11.6 SSW 18 29 1010.0 - 2.6 - - - - - - -
20/08:30pm 11.5 SSW 18 29 1009.5 - 2.6 - - - - - - -
20/08:00pm 11.8 SSW 19 31 1009.2 - 2.6 - - - - - - -
20/07:30pm 11.6 SSW 19 30 1008.9 - 2.6 - - - - - - -
20/07:00pm 11.5 SSW 18 31 1008.5 - 2.4 - - - - - - -
20/06:30pm 12.0 SSW 18 30 1008.0 - 2.4 - - - - - - -
20/06:05pm 12.4 SSW 19 30 1008.0 - 2.4 - - - - - - -
20/06:00pm 12.6 SSW 18 25 1008.0 - 2.4 - - - - - - -
20/05:30pm 12.7 SSW 15 24 1007.8 - 2.4 - - - - - - -
20/05:00pm 13.5 SSW 13 21 1007.5 - 2.4 - - - - - - -
20/04:30pm 12.8 S 13 22 1007.4 - 2.4 - - - - - - -
20/04:00pm 12.6 S 14 26 1007.3 - 2.4 - - - - - - -
20/03:30pm 13.0 S 13 24 1006.9 - 2.4 - - - - - - -
20/03:00pm 13.6 S 13 19 1007.2 - 2.4 - - - - - - -
20/02:30pm 12.7 SSE 12 22 1007.3 - 2.4 - - - - - - -
20/02:00pm 12.9 SSE 14 23 1007.2 - 2.4 - - - - - - -
20/01:56pm 12.8 SSE 16 27 1007.2 - 2.4 - - - - - - -
20/01:30pm 12.4 SSE 17 27 1006.8 - 2.4 - - - - - - -
20/01:27pm 12.5 SSE 14 27 1006.8 - 2.4 - - - - - - -
20/01:00pm 13.9 SSE 9 16 1006.9 - 0.0 - - - - - - -
20/12:30pm 15.6 SSE 7 14 1007.2 - 0.0 - - - - - - -
20/12:00pm 14.6 SSE 8 14 1007.4 - 0.0 - - - - - - -
20/11:30am 14.3 S 4 12 1007.6 - 0.0 - - - - - - -
20/11:00am 14.2 SSE 5 11 1007.5 - 0.0 - - - - - - -
20/10:30am 14.0 SSE 6 10 1007.6 - 0.0 - - - - - - -
20/10:00am 13.7 SSE 6 9 1007.7 - 0.0 - - - - - - -
20/09:30am 13.3 S 3 7 1007.6 - 0.0 - - - - - - -
20/09:00am 12.4 SW 4 8 1007.4 - 0.4 - - - - - - -
20/08:30am 12.4 W 3 5 1007.4 - 0.4 - - - - - - -
20/08:00am 11.9 WSW 3 5 1007.1 - 0.4 - - - - - - -
20/07:30am 11.5 W 4 6 1006.9 - 0.4 - - - - - - -
20/07:00am 11.3 WNW 2 5 1006.7 - 0.4 - - - - - - -
20/06:30am 11.4 SW 3 4 1006.6 - 0.4 - - - - - - -
20/06:00am 11.7 SSE 3 5 1006.3 - 0.4 - - - - - - -
20/05:30am 11.9 WSW 2 4 1006.3 - 0.4 - - - - - - -
20/05:00am 11.2 W 2 4 1006.1 - 0.4 - - - - - - -
20/04:30am 10.9 W 2 5 1006.0 - 0.4 - - - - - - -

Other Formats:

Comma delimited format used in spreadsheet applications
http://www.bom.gov.au/fwo/IDT60701/IDT60701.95986.axf

JavaScript Object Notation format (JSON) in row-major order
http://www.bom.gov.au/fwo/IDT60701/IDT60701.95986.json